sensor_id;sensor_type;location;lat;lon;timestamp;pressure;altitude;pressure_sealevel;temperature;humidity
10992;BME280;5549;47.028;15.514;2024-02-21T00:00:52;97467.56;;;8.33;48.66
10992;BME280;5549;47.028;15.514;2024-02-21T00:03:20;97465.00;;;8.32;48.20
10992;BME280;5549;47.028;15.514;2024-02-21T00:05:50;97464.16;;;8.31;47.81
10992;BME280;5549;47.028;15.514;2024-02-21T00:08:18;97465.00;;;8.32;47.97
10992;BME280;5549;47.028;15.514;2024-02-21T00:10:47;97463.31;;;8.31;47.95
10992;BME280;5549;47.028;15.514;2024-02-21T00:13:19;97461.63;;;8.30;48.58
10992;BME280;5549;47.028;15.514;2024-02-21T00:15:46;97462.56;;;8.29;48.21
10992;BME280;5549;47.028;15.514;2024-02-21T00:18:14;97455.66;;;8.28;48.09
10992;BME280;5549;47.028;15.514;2024-02-21T00:20:43;97453.22;;;8.25;48.10
10992;BME280;5549;47.028;15.514;2024-02-21T00:23:11;97462.19;;;8.21;48.20
10992;BME280;5549;47.028;15.514;2024-02-21T00:25:40;97463.31;;;8.17;47.93
10992;BME280;5549;47.028;15.514;2024-02-21T00:28:10;97463.41;;;8.15;47.87
10992;BME280;5549;47.028;15.514;2024-02-21T00:30:39;97460.13;;;8.12;47.83
10992;BME280;5549;47.028;15.514;2024-02-21T00:33:06;97459.19;;;8.13;48.29
10992;BME280;5549;47.028;15.514;2024-02-21T00:35:34;97461.06;;;8.11;48.72
10992;BME280;5549;47.028;15.514;2024-02-21T00:38:04;97460.50;;;8.05;48.76
10992;BME280;5549;47.028;15.514;2024-02-21T00:40:35;97453.84;;;8.00;48.62
10992;BME280;5549;47.028;15.514;2024-02-21T00:43:05;97451.41;;;7.97;48.91
10992;BME280;5549;47.028;15.514;2024-02-21T00:45:32;97456.66;;;7.97;48.53
10992;BME280;5549;47.028;15.514;2024-02-21T00:48:01;97453.09;;;7.98;48.74
10992;BME280;5549;47.028;15.514;2024-02-21T00:50:29;97445.25;;;7.98;48.52
10992;BME280;5549;47.028;15.514;2024-02-21T00:52:59;97450.31;;;8.01;49.12
10992;BME280;5549;47.028;15.514;2024-02-21T00:55:26;97447.69;;;8.01;49.24
10992;BME280;5549;47.028;15.514;2024-02-21T00:57:54;97446.84;;;8.00;49.39
10992;BME280;5549;47.028;15.514;2024-02-21T01:00:23;97435.34;;;8.03;49.88
10992;BME280;5549;47.028;15.514;2024-02-21T01:02:55;97440.13;;;7.96;49.79
10992;BME280;5549;47.028;15.514;2024-02-21T01:05:25;97442.91;;;7.93;49.65
10992;BME280;5549;47.028;15.514;2024-02-21T01:08:14;97439.72;;;7.88;50.01
10992;BME280;5549;47.028;15.514;2024-02-21T01:10:42;97439.91;;;7.85;49.92
10992;BME280;5549;47.028;15.514;2024-02-21T01:13:29;97443.28;;;7.87;49.76
10992;BME280;5549;47.028;15.514;2024-02-21T01:16:00;97442.91;;;7.93;50.17
10992;BME280;5549;47.028;15.514;2024-02-21T01:18:33;97436.75;;;7.94;49.78
10992;BME280;5549;47.028;15.514;2024-02-21T01:21:03;97435.81;;;7.95;49.87
10992;BME280;5549;47.028;15.514;2024-02-21T01:23:35;97437.50;;;7.96;50.14
10992;BME280;5549;47.028;15.514;2024-02-21T01:26:03;97430.22;;;8.01;50.28
10992;BME280;5549;47.028;15.514;2024-02-21T01:28:33;97433.59;;;8.03;50.05
10992;BME280;5549;47.028;15.514;2024-02-21T01:31:03;97428.72;;;7.97;49.70
10992;BME280;5549;47.028;15.514;2024-02-21T01:33:33;97427.88;;;7.97;49.13
10992;BME280;5549;47.028;15.514;2024-02-21T01:36:04;97420.78;;;7.99;49.00
10992;BME280;5549;47.028;15.514;2024-02-21T01:38:35;97428.34;;;8.03;49.56
10992;BME280;5549;47.028;15.514;2024-02-21T01:41:03;97425.66;;;8.05;49.67
10992;BME280;5549;47.028;15.514;2024-02-21T01:43:31;97417.88;;;8.03;49.40
10992;BME280;5549;47.028;15.514;2024-02-21T01:46:02;97425.00;;;8.01;49.50
10992;BME280;5549;47.028;15.514;2024-02-21T01:48:30;97426.66;;;8.02;49.16
10992;BME280;5549;47.028;15.514;2024-02-21T01:50:58;97422.28;;;8.03;49.58
10992;BME280;5549;47.028;15.514;2024-02-21T01:53:40;97429.84;;;8.08;49.68
10992;BME280;5549;47.028;15.514;2024-02-21T01:56:10;97426.22;;;8.10;49.42
10992;BME280;5549;47.028;15.514;2024-02-21T01:58:41;97419.38;;;8.08;49.93
10992;BME280;5549;47.028;15.514;2024-02-21T02:01:12;97409.25;;;7.73;51.39
10992;BME280;5549;47.028;15.514;2024-02-21T02:03:42;97411.47;;;6.58;55.64
10992;BME280;5549;47.028;15.514;2024-02-21T02:06:12;97410.13;;;6.66;56.07
10992;BME280;5549;47.028;15.514;2024-02-21T02:08:42;97410.44;;;6.92;55.45
10992;BME280;5549;47.028;15.514;2024-02-21T02:11:10;97421.41;;;7.14;54.10
10992;BME280;5549;47.028;15.514;2024-02-21T02:13:37;97411.94;;;7.27;53.91
10992;BME280;5549;47.028;15.514;2024-02-21T02:16:07;97409.53;;;7.38;53.67
10992;BME280;5549;47.028;15.514;2024-02-21T02:18:37;97402.09;;;7.47;51.08
10992;BME280;5549;47.028;15.514;2024-02-21T02:21:15;97410.53;;;7.06;52.89
10992;BME280;5549;47.028;15.514;2024-02-21T02:23:51;97409.44;;;7.10;53.72
10992;BME280;5549;47.028;15.514;2024-02-21T02:26:19;97399.16;;;7.07;53.10
10992;BME280;5549;47.028;15.514;2024-02-21T02:28:49;97405.56;;;7.17;52.34
10992;BME280;5549;47.028;15.514;2024-02-21T02:31:17;97412.63;;;7.15;54.25
10992;BME280;5549;47.028;15.514;2024-02-21T02:33:47;97409.38;;;6.96;54.84
10992;BME280;5549;47.028;15.514;2024-02-21T02:36:15;97395.28;;;7.14;53.33
10992;BME280;5549;47.028;15.514;2024-02-21T02:38:44;97395.41;;;7.27;51.44
10992;BME280;5549;47.028;15.514;2024-02-21T02:41:13;97393.66;;;7.27;51.51
10992;BME280;5549;47.028;15.514;2024-02-21T02:43:40;97398.16;;;7.39;53.93
10992;BME280;5549;47.028;15.514;2024-02-21T02:46:08;97400.78;;;7.39;53.56
10992;BME280;5549;47.028;15.514;2024-02-21T02:48:36;97397.53;;;7.50;53.57
10992;BME280;5549;47.028;15.514;2024-02-21T02:51:04;97396.69;;;7.50;53.37
10992;BME280;5549;47.028;15.514;2024-02-21T02:53:36;97390.22;;;7.11;54.17
10992;BME280;5549;47.028;15.514;2024-02-21T02:56:05;97382.63;;;7.22;53.11
10992;BME280;5549;47.028;15.514;2024-02-21T02:58:36;97386.28;;;7.34;52.45
10992;BME280;5549;47.028;15.514;2024-02-21T03:01:06;97384.13;;;7.26;52.82
10992;BME280;5549;47.028;15.514;2024-02-21T03:03:36;97378.28;;;7.37;52.36
10992;BME280;5549;47.028;15.514;2024-02-21T03:06:05;97384.00;;;7.44;52.33
10992;BME280;5549;47.028;15.514;2024-02-21T03:08:35;97374.22;;;7.17;53.57
10992;BME280;5549;47.028;15.514;2024-02-21T03:11:05;97375.00;;;7.33;51.97
10992;BME280;5549;47.028;15.514;2024-02-21T03:13:37;97378.09;;;7.10;53.97
10992;BME280;5549;47.028;15.514;2024-02-21T03:16:07;97375.16;;;7.00;53.86
10992;BME280;5549;47.028;15.514;2024-02-21T03:18:35;97376.00;;;7.01;53.50
10992;BME280;5549;47.028;15.514;2024-02-21T03:21:05;97368.75;;;7.06;53.93
10992;BME280;5549;47.028;15.514;2024-02-21T03:23:36;97362.97;;;7.01;50.59
10992;BME280;5549;47.028;15.514;2024-02-21T03:26:04;97356.06;;;7.00;52.72
10992;BME280;5549;47.028;15.514;2024-02-21T03:28:36;97359.50;;;7.00;55.00
10992;BME280;5549;47.028;15.514;2024-02-21T03:31:11;97362.44;;;7.10;54.37
10992;BME280;5549;47.028;15.514;2024-02-21T03:33:43;97365.13;;;7.08;54.91
10992;BME280;5549;47.028;15.514;2024-02-21T03:36:14;97375.84;;;7.04;52.84
10992;BME280;5549;47.028;15.514;2024-02-21T03:38:42;97371.53;;;7.03;53.54
10992;BME280;5549;47.028;15.514;2024-02-21T03:41:09;97383.16;;;6.82;55.19
10992;BME280;5549;47.028;15.514;2024-02-21T03:43:39;97374.91;;;6.73;54.70
10992;BME280;5549;47.028;15.514;2024-02-21T03:46:07;97373.56;;;6.82;54.92
10992;BME280;5549;47.028;15.514;2024-02-21T03:48:36;97379.91;;;6.62;54.94
10992;BME280;5549;47.028;15.514;2024-02-21T03:51:06;97376.44;;;6.46;55.13
10992;BME280;5549;47.028;15.514;2024-02-21T03:53:34;97374.84;;;6.28;54.86
10992;BME280;5549;47.028;15.514;2024-02-21T03:56:02;97378.03;;;6.33;55.30
10992;BME280;5549;47.028;15.514;2024-02-21T03:58:30;97368.84;;;6.26;55.28
10992;BME280;5549;47.028;15.514;2024-02-21T04:01:02;97365.56;;;6.22;55.40
10992;BME280;5549;47.028;15.514;2024-02-21T04:03:31;97365.66;;;6.21;55.23
10992;BME280;5549;47.028;15.514;2024-02-21T04:05:58;97361.44;;;6.18;55.66
10992;BME280;5549;47.028;15.514;2024-02-21T04:08:26;97363.22;;;6.18;55.84
10992;BME280;5549;47.028;15.514;2024-02-21T04:10:56;97362.28;;;6.19;55.18
10992;BME280;5549;47.028;15.514;2024-02-21T04:13:26;97358.75;;;6.20;55.02
10992;BME280;5549;47.028;15.514;2024-02-21T04:15:54;97355.97;;;6.23;55.39
10992;BME280;5549;47.028;15.514;2024-02-21T04:18:24;97358.94;;;6.32;54.36
10992;BME280;5549;47.028;15.514;2024-02-21T04:20:54;97353.47;;;6.37;54.22
10992;BME280;5549;47.028;15.514;2024-02-21T04:23:24;97353.13;;;6.43;54.61
10992;BME280;5549;47.028;15.514;2024-02-21T04:25:55;97348.16;;;6.54;54.27
10992;BME280;5549;47.028;15.514;2024-02-21T04:28:25;97354.41;;;6.52;53.79
10992;BME280;5549;47.028;15.514;2024-02-21T04:30:54;97349.34;;;6.64;53.83
10992;BME280;5549;47.028;15.514;2024-02-21T04:33:23;97351.59;;;6.70;53.51
10992;BME280;5549;47.028;15.514;2024-02-21T04:35:51;97351.34;;;6.75;53.15
10992;BME280;5549;47.028;15.514;2024-02-21T04:38:20;97351.00;;;6.81;52.46
10992;BME280;5549;47.028;15.514;2024-02-21T04:40:48;97350.66;;;6.87;51.29
10992;BME280;5549;47.028;15.514;2024-02-21T04:43:16;97358.22;;;6.92;50.86
10992;BME280;5549;47.028;15.514;2024-02-21T04:45:45;97346.84;;;6.93;50.38
10992;BME280;5549;47.028;15.514;2024-02-21T04:48:13;97344.41;;;6.90;49.71
10992;BME280;5549;47.028;15.514;2024-02-21T04:50:42;97343.16;;;6.97;49.96
10992;BME280;5549;47.028;15.514;2024-02-21T04:53:10;97338.44;;;7.03;48.83
10992;BME280;5549;47.028;15.514;2024-02-21T04:55:37;97338.53;;;7.02;48.24
10992;BME280;5549;47.028;15.514;2024-02-21T04:58:06;97338.25;;;7.06;48.49
10992;BME280;5549;47.028;15.514;2024-02-21T05:00:34;97341.53;;;7.10;47.99
10992;BME280;5549;47.028;15.514;2024-02-21T05:03:02;97335.38;;;7.11;47.93
10992;BME280;5549;47.028;15.514;2024-02-21T05:05:31;97340.25;;;7.17;48.59
10992;BME280;5549;47.028;15.514;2024-02-21T05:08:03;97334.09;;;7.18;47.62
10992;BME280;5549;47.028;15.514;2024-02-21T05:10:31;97335.03;;;7.17;48.34
10992;BME280;5549;47.028;15.514;2024-02-21T05:12:58;97339.50;;;7.15;48.07
10992;BME280;5549;47.028;15.514;2024-02-21T05:15:27;97334.38;;;7.14;48.57
10992;BME280;5549;47.028;15.514;2024-02-21T05:17:56;97341.19;;;7.16;49.61
10992;BME280;5549;47.028;15.514;2024-02-21T05:20:26;97327.84;;;7.21;49.11
10992;BME280;5549;47.028;15.514;2024-02-21T05:22:54;97324.50;;;7.19;48.56
10992;BME280;5549;47.028;15.514;2024-02-21T05:25:22;97330.56;;;7.19;48.30
10992;BME280;5549;47.028;15.514;2024-02-21T05:27:51;97339.91;;;7.23;48.36
10992;BME280;5549;47.028;15.514;2024-02-21T05:30:22;97333.75;;;7.24;48.08
10992;BME280;5549;47.028;15.514;2024-02-21T05:32:51;97336.25;;;7.26;48.77
10992;BME280;5549;47.028;15.514;2024-02-21T05:35:19;97331.88;;;7.26;48.47
10992;BME280;5549;47.028;15.514;2024-02-21T05:37:49;97326.56;;;7.28;47.86
10992;BME280;5549;47.028;15.514;2024-02-21T05:40:18;97325.53;;;7.30;48.28
10992;BME280;5549;47.028;15.514;2024-02-21T05:42:48;97327.41;;;7.28;47.92
10992;BME280;5549;47.028;15.514;2024-02-21T05:45:17;97327.41;;;7.28;47.53
10992;BME280;5549;47.028;15.514;2024-02-21T05:47:45;97325.44;;;7.32;47.76
10992;BME280;5549;47.028;15.514;2024-02-21T05:50:12;97329.09;;;7.29;47.39
10992;BME280;5549;47.028;15.514;2024-02-21T05:52:42;97333.56;;;7.27;47.88
10992;BME280;5549;47.028;15.514;2024-02-21T05:55:10;97323.09;;;7.27;47.38
10992;BME280;5549;47.028;15.514;2024-02-21T05:57:37;97325.81;;;7.26;48.02
10992;BME280;5549;47.028;15.514;2024-02-21T06:00:10;97324.03;;;7.26;47.52
10992;BME280;5549;47.028;15.514;2024-02-21T06:02:40;97324.13;;;7.25;48.02
10992;BME280;5549;47.028;15.514;2024-02-21T06:05:09;97324.97;;;7.25;47.98
10992;BME280;5549;47.028;15.514;2024-02-21T06:07:37;97320.59;;;7.26;47.76
10992;BME280;5549;47.028;15.514;2024-02-21T06:10:07;97324.88;;;7.27;47.82
10992;BME280;5549;47.028;15.514;2024-02-21T06:12:37;97324.03;;;7.26;47.43
10992;BME280;5549;47.028;15.514;2024-02-21T06:15:06;97315.19;;;7.29;47.68
10992;BME280;5549;47.028;15.514;2024-02-21T06:17:35;97318.91;;;7.25;47.34
10992;BME280;5549;47.028;15.514;2024-02-21T06:20:07;97306.28;;;7.17;47.28
10992;BME280;5549;47.028;15.514;2024-02-21T06:22:37;97319.25;;;7.19;47.92
10992;BME280;5549;47.028;15.514;2024-02-21T06:25:08;97312.28;;;7.19;47.65
10992;BME280;5549;47.028;15.514;2024-02-21T06:27:37;97317.50;;;7.19;47.93
10992;BME280;5549;47.028;15.514;2024-02-21T06:30:09;97315.63;;;7.21;47.93
10992;BME280;5549;47.028;15.514;2024-02-21T06:32:40;97324.97;;;7.25;47.72
10992;BME280;5549;47.028;15.514;2024-02-21T06:35:08;97317.88;;;7.27;48.00
10992;BME280;5549;47.028;15.514;2024-02-21T06:37:35;97321.06;;;7.32;47.33
10992;BME280;5549;47.028;15.514;2024-02-21T06:40:07;97326.78;;;7.39;47.10
10992;BME280;5549;47.028;15.514;2024-02-21T06:42:38;97325.47;;;7.46;47.42
10992;BME280;5549;47.028;15.514;2024-02-21T06:45:06;97325.13;;;7.66;48.03
10992;BME280;5549;47.028;15.514;2024-02-21T06:47:34;97320.75;;;7.95;47.89
10992;BME280;5549;47.028;15.514;2024-02-21T06:50:07;97328.75;;;8.21;47.67
10992;BME280;5549;47.028;15.514;2024-02-21T06:52:37;97335.81;;;8.61;47.49
10992;BME280;5549;47.028;15.514;2024-02-21T06:55:07;97332.34;;;9.15;46.95
10992;BME280;5549;47.028;15.514;2024-02-21T06:57:35;97327.56;;;9.47;45.21
10992;BME280;5549;47.028;15.514;2024-02-21T07:00:04;97324.97;;;9.72;43.75
10992;BME280;5549;47.028;15.514;2024-02-21T07:02:36;97322.03;;;9.89;43.84
10992;BME280;5549;47.028;15.514;2024-02-21T07:05:08;97322.75;;;9.91;43.36
10992;BME280;5549;47.028;15.514;2024-02-21T07:07:36;97327.69;;;9.83;44.02
10992;BME280;5549;47.028;15.514;2024-02-21T07:10:04;97337.25;;;9.84;43.42
10992;BME280;5549;47.028;15.514;2024-02-21T07:12:33;97329.59;;;9.81;43.75
10992;BME280;5549;47.028;15.514;2024-02-21T07:15:02;97326.22;;;9.79;44.01
10992;BME280;5549;47.028;15.514;2024-02-21T07:17:32;97324.84;;;10.12;55.96
10992;BME280;5549;47.028;15.514;2024-02-21T07:19:59;97335.03;;;10.42;54.29
10992;BME280;5549;47.028;15.514;2024-02-21T07:22:29;97333.56;;;10.74;53.15
10992;BME280;5549;47.028;15.514;2024-02-21T07:25:05;97320.50;;;11.20;52.04
10992;BME280;5549;47.028;15.514;2024-02-21T07:27:34;97319.72;;;11.77;50.36
10992;BME280;5549;47.028;15.514;2024-02-21T07:30:04;97315.94;;;12.15;46.70
10992;BME280;5549;47.028;15.514;2024-02-21T07:32:34;97315.44;;;12.32;45.70
10992;BME280;5549;47.028;15.514;2024-02-21T07:35:05;97312.19;;;12.51;46.14
10992;BME280;5549;47.028;15.514;2024-02-21T07:37:40;97316.72;;;12.60;44.83
10992;BME280;5549;47.028;15.514;2024-02-21T07:40:12;97306.88;;;12.62;42.67
10992;BME280;5549;47.028;15.514;2024-02-21T07:42:40;97306.75;;;12.64;41.04
10992;BME280;5549;47.028;15.514;2024-02-21T07:45:10;97307.72;;;12.63;40.27
10992;BME280;5549;47.028;15.514;2024-02-21T07:47:40;97303.28;;;12.63;39.78
10992;BME280;5549;47.028;15.514;2024-02-21T07:50:08;97295.00;;;12.68;39.12
10992;BME280;5549;47.028;15.514;2024-02-21T07:52:36;97299.91;;;12.72;39.26
10992;BME280;5549;47.028;15.514;2024-02-21T07:55:23;97294.97;;;12.79;38.71
10992;BME280;5549;47.028;15.514;2024-02-21T07:58:09;97286.06;;;12.91;38.53
10992;BME280;5549;47.028;15.514;2024-02-21T08:00:39;97280.75;;;13.02;39.02
10992;BME280;5549;47.028;15.514;2024-02-21T08:03:07;97294.38;;;13.19;38.10
10992;BME280;5549;47.028;15.514;2024-02-21T08:05:35;97283.00;;;13.18;36.34
10992;BME280;5549;47.028;15.514;2024-02-21T08:08:05;97284.94;;;13.37;37.72
10992;BME280;5549;47.028;15.514;2024-02-21T08:10:34;97271.25;;;13.73;38.17
10992;BME280;5549;47.028;15.514;2024-02-21T08:13:02;97273.03;;;14.24;38.18
10992;BME280;5549;47.028;15.514;2024-02-21T08:15:30;97264.94;;;14.47;34.73
10992;BME280;5549;47.028;15.514;2024-02-21T08:17:58;97270.53;;;14.63;35.60
10992;BME280;5549;47.028;15.514;2024-02-21T08:20:27;97262.34;;;14.85;35.31
10992;BME280;5549;47.028;15.514;2024-02-21T08:22:57;97271.78;;;14.78;34.69
10992;BME280;5549;47.028;15.514;2024-02-21T08:25:25;97264.09;;;14.56;34.88
10992;BME280;5549;47.028;15.514;2024-02-21T08:27:59;97268.84;;;14.62;35.26
10992;BME280;5549;47.028;15.514;2024-02-21T08:30:26;97269.66;;;14.53;34.63
10992;BME280;5549;47.028;15.514;2024-02-21T08:32:54;97270.66;;;14.21;34.28
10992;BME280;5549;47.028;15.514;2024-02-21T08:35:24;97275.31;;;13.98;34.94
10992;BME280;5549;47.028;15.514;2024-02-21T08:37:51;97279.34;;;13.30;33.26
10992;BME280;5549;47.028;15.514;2024-02-21T08:40:19;97277.38;;;12.36;34.49
10992;BME280;5549;47.028;15.514;2024-02-21T08:42:47;97277.63;;;11.88;35.07
10992;BME280;5549;47.028;15.514;2024-02-21T08:45:19;97277.56;;;11.66;36.92
10992;BME280;5549;47.028;15.514;2024-02-21T08:47:47;97271.56;;;11.53;36.28
10992;BME280;5549;47.028;15.514;2024-02-21T08:50:17;97274.28;;;11.40;37.44
10992;BME280;5549;47.028;15.514;2024-02-21T08:52:47;97270.78;;;11.17;38.35
10992;BME280;5549;47.028;15.514;2024-02-21T08:55:15;97267.63;;;11.01;38.06
10992;BME280;5549;47.028;15.514;2024-02-21T08:57:42;97273.28;;;10.84;39.04
10992;BME280;5549;47.028;15.514;2024-02-21T09:00:11;97278.03;;;10.79;39.05
10992;BME280;5549;47.028;15.514;2024-02-21T09:02:43;97283.03;;;10.71;39.50
10992;BME280;5549;47.028;15.514;2024-02-21T09:05:11;97281.06;;;10.62;39.33
10992;BME280;5549;47.028;15.514;2024-02-21T09:07:39;97273.53;;;10.57;40.28
10992;BME280;5549;47.028;15.514;2024-02-21T09:10:08;97278.44;;;10.62;39.77
10992;BME280;5549;47.028;15.514;2024-02-21T09:12:36;97269.59;;;10.63;40.43
10992;BME280;5549;47.028;15.514;2024-02-21T09:15:07;97268.22;;;10.70;40.28
10992;BME280;5549;47.028;15.514;2024-02-21T09:17:37;97266.16;;;10.62;39.62
10992;BME280;5549;47.028;15.514;2024-02-21T09:20:10;97270.28;;;10.77;40.11
10992;BME280;5549;47.028;15.514;2024-02-21T09:22:38;97259.09;;;10.63;40.45
10992;BME280;5549;47.028;15.514;2024-02-21T09:25:07;97260.31;;;10.70;40.46
10992;BME280;5549;47.028;15.514;2024-02-21T09:27:38;97257.53;;;10.84;40.71
10992;BME280;5549;47.028;15.514;2024-02-21T09:30:07;97254.94;;;10.95;40.80
10992;BME280;5549;47.028;15.514;2024-02-21T09:32:38;97255.22;;;11.14;39.60
10992;BME280;5549;47.028;15.514;2024-02-21T09:35:06;97252.13;;;11.09;39.67
10992;BME280;5549;47.028;15.514;2024-02-21T09:37:35;97251.41;;;11.18;39.33
10992;BME280;5549;47.028;15.514;2024-02-21T09:40:05;97253.34;;;11.28;40.25
10992;BME280;5549;47.028;15.514;2024-02-21T09:42:37;97245.97;;;11.44;40.05
10992;BME280;5549;47.028;15.514;2024-02-21T09:45:15;97239.75;;;11.45;39.14
10992;BME280;5549;47.028;15.514;2024-02-21T09:48:00;97237.59;;;11.39;39.30
10992;BME280;5549;47.028;15.514;2024-02-21T09:50:33;97232.59;;;11.47;39.47
10992;BME280;5549;47.028;15.514;2024-02-21T09:53:07;97232.84;;;11.55;40.00
10992;BME280;5549;47.028;15.514;2024-02-21T09:55:36;97235.00;;;11.72;39.83
10992;BME280;5549;47.028;15.514;2024-02-21T09:58:09;97226.28;;;11.83;39.94
10992;BME280;5549;47.028;15.514;2024-02-21T10:00:37;97224.38;;;11.85;38.74
10992;BME280;5549;47.028;15.514;2024-02-21T10:03:06;97230.34;;;11.98;38.55
10992;BME280;5549;47.028;15.514;2024-02-21T10:05:36;97230.22;;;12.11;38.94
10992;BME280;5549;47.028;15.514;2024-02-21T10:08:13;97225.66;;;12.24;39.84
10992;BME280;5549;47.028;15.514;2024-02-21T10:10:43;97224.94;;;12.33;39.42
10992;BME280;5549;47.028;15.514;2024-02-21T10:13:24;97220.13;;;12.38;39.41
10992;BME280;5549;47.028;15.514;2024-02-21T10:16:05;97217.25;;;12.41;37.92
10992;BME280;5549;47.028;15.514;2024-02-21T10:18:36;97214.84;;;12.49;38.18
10992;BME280;5549;47.028;15.514;2024-02-21T10:21:07;97209.31;;;12.52;38.36
10992;BME280;5549;47.028;15.514;2024-02-21T10:23:43;97206.50;;;12.65;37.91
10992;BME280;5549;47.028;15.514;2024-02-21T10:26:15;97206.84;;;12.72;37.93
10992;BME280;5549;47.028;15.514;2024-02-21T10:28:43;97212.06;;;12.51;37.83
10992;BME280;5549;47.028;15.514;2024-02-21T10:31:22;97207.56;;;12.42;38.22
10992;BME280;5549;47.028;15.514;2024-02-21T10:33:56;97203.63;;;12.36;37.67
10992;BME280;5549;47.028;15.514;2024-02-21T10:36:25;97193.03;;;12.47;38.14
10992;BME280;5549;47.028;15.514;2024-02-21T10:38:56;97193.78;;;12.70;37.68
10992;BME280;5549;47.028;15.514;2024-02-21T10:41:24;97193.16;;;12.78;37.77
10992;BME280;5549;47.028;15.514;2024-02-21T10:43:55;97178.69;;;12.93;38.04
10992;BME280;5549;47.028;15.514;2024-02-21T10:46:24;97168.16;;;12.93;38.54
10992;BME280;5549;47.028;15.514;2024-02-21T10:49:02;97165.25;;;12.96;37.68
10992;BME280;5549;47.028;15.514;2024-02-21T10:51:40;97160.38;;;13.12;37.56
10992;BME280;5549;47.028;15.514;2024-02-21T10:54:36;97149.50;;;13.27;36.83
10992;BME280;5549;47.028;15.514;2024-02-21T10:57:05;97148.53;;;13.28;38.28
10992;BME280;5549;47.028;15.514;2024-02-21T10:59:36;97138.44;;;13.33;38.52
10992;BME280;5549;47.028;15.514;2024-02-21T11:02:07;97132.03;;;13.66;37.35
10992;BME280;5549;47.028;15.514;2024-02-21T11:04:36;97132.84;;;13.97;36.66
10992;BME280;5549;47.028;15.514;2024-02-21T11:07:07;97124.03;;;13.87;37.67
10992;BME280;5549;47.028;15.514;2024-02-21T11:09:39;97115.09;;;14.28;37.03
10992;BME280;5549;47.028;15.514;2024-02-21T11:12:07;97110.09;;;14.73;35.20
10992;BME280;5549;47.028;15.514;2024-02-21T11:14:38;97102.44;;;14.80;33.74
10992;BME280;5549;47.028;15.514;2024-02-21T11:17:16;97101.56;;;14.98;33.67
10992;BME280;5549;47.028;15.514;2024-02-21T11:19:44;97097.09;;;14.99;33.29
10992;BME280;5549;47.028;15.514;2024-02-21T11:22:15;97094.25;;;15.20;33.11
10992;BME280;5549;47.028;15.514;2024-02-21T11:24:45;97087.41;;;15.27;32.67
10992;BME280;5549;47.028;15.514;2024-02-21T11:27:15;97085.56;;;15.37;32.71
10992;BME280;5549;47.028;15.514;2024-02-21T11:29:44;97083.84;;;15.46;32.45
10992;BME280;5549;47.028;15.514;2024-02-21T11:32:16;97085.38;;;15.48;31.93
10992;BME280;5549;47.028;15.514;2024-02-21T11:34:55;97078.31;;;15.39;31.94
10992;BME280;5549;47.028;15.514;2024-02-21T11:37:25;97058.66;;;15.79;32.60
10992;BME280;5549;47.028;15.514;2024-02-21T11:39:58;97059.66;;;16.13;33.83
10992;BME280;5549;47.028;15.514;2024-02-21T11:42:28;97055.13;;;16.23;30.38
10992;BME280;5549;47.028;15.514;2024-02-21T11:44:57;97044.63;;;16.57;31.64
10992;BME280;5549;47.028;15.514;2024-02-21T11:47:25;97040.78;;;16.52;29.40
10992;BME280;5549;47.028;15.514;2024-02-21T11:49:55;97026.78;;;16.85;29.20
10992;BME280;5549;47.028;15.514;2024-02-21T11:52:25;97025.22;;;17.00;29.38
10992;BME280;5549;47.028;15.514;2024-02-21T11:54:57;97019.59;;;17.04;28.43
10992;BME280;5549;47.028;15.514;2024-02-21T11:57:30;97011.59;;;16.70;28.11
10992;BME280;5549;47.028;15.514;2024-02-21T11:59:58;97012.94;;;16.12;28.52
10992;BME280;5549;47.028;15.514;2024-02-21T12:02:26;96994.91;;;16.33;28.70
10992;BME280;5549;47.028;15.514;2024-02-21T12:04:54;97003.66;;;15.90;28.73
10992;BME280;5549;47.028;15.514;2024-02-21T12:07:22;96992.81;;;15.84;27.99
10992;BME280;5549;47.028;15.514;2024-02-21T12:09:51;96996.28;;;15.66;28.86
10992;BME280;5549;47.028;15.514;2024-02-21T12:12:21;96991.41;;;15.34;28.22
10992;BME280;5549;47.028;15.514;2024-02-21T12:14:56;96986.84;;;15.54;28.56
10992;BME280;5549;47.028;15.514;2024-02-21T12:17:24;96988.34;;;15.84;29.62
10992;BME280;5549;47.028;15.514;2024-02-21T12:19:51;96990.56;;;15.89;30.23
10992;BME280;5549;47.028;15.514;2024-02-21T12:22:21;96991.38;;;15.89;29.01
10992;BME280;5549;47.028;15.514;2024-02-21T12:24:49;96986.09;;;16.07;29.99
10992;BME280;5549;47.028;15.514;2024-02-21T12:27:20;96976.78;;;16.03;29.17
10992;BME280;5549;47.028;15.514;2024-02-21T12:29:52;96975.56;;;15.80;30.41
10992;BME280;5549;47.028;15.514;2024-02-21T12:32:21;96969.66;;;16.03;29.92
10992;BME280;5549;47.028;15.514;2024-02-21T12:34:51;96959.91;;;16.04;29.83
10992;BME280;5549;47.028;15.514;2024-02-21T12:37:19;96953.09;;;15.84;28.67
10992;BME280;5549;47.028;15.514;2024-02-21T12:39:49;96952.78;;;15.87;29.09
10992;BME280;5549;47.028;15.514;2024-02-21T12:42:17;96941.06;;;15.71;29.27
10992;BME280;5549;47.028;15.514;2024-02-21T12:44:48;96945.53;;;15.71;29.30
10992;BME280;5549;47.028;15.514;2024-02-21T12:47:16;96945.16;;;15.84;28.82
10992;BME280;5549;47.028;15.514;2024-02-21T12:49:48;96947.44;;;15.79;29.77
10992;BME280;5549;47.028;15.514;2024-02-21T12:52:15;96936.38;;;15.83;30.84
10992;BME280;5549;47.028;15.514;2024-02-21T12:54:45;96939.09;;;15.74;31.32
10992;BME280;5549;47.028;15.514;2024-02-21T12:57:16;96944.84;;;15.87;30.99
10992;BME280;5549;47.028;15.514;2024-02-21T12:59:46;96939.28;;;16.16;29.86
10992;BME280;5549;47.028;15.514;2024-02-21T13:02:14;96939.56;;;16.30;29.78
10992;BME280;5549;47.028;15.514;2024-02-21T13:04:44;96936.44;;;16.35;30.04
10992;BME280;5549;47.028;15.514;2024-02-21T13:07:11;96933.78;;;16.35;29.10
10992;BME280;5549;47.028;15.514;2024-02-21T13:09:39;96926.34;;;16.13;31.11
10992;BME280;5549;47.028;15.514;2024-02-21T13:12:08;96931.47;;;16.32;30.30
10992;BME280;5549;47.028;15.514;2024-02-21T13:14:35;96924.53;;;16.13;29.70
10992;BME280;5549;47.028;15.514;2024-02-21T13:17:07;96915.06;;;16.11;30.56
10992;BME280;5549;47.028;15.514;2024-02-21T13:19:37;96918.31;;;16.22;29.52